createdAt,value
2022-11-25T00:00:48.181Z,99915.53
2022-11-25T00:03:20.718Z,99914.91
2022-11-25T00:06:19.806Z,99913.94
2022-11-25T00:09:09.650Z,99920.88
2022-11-25T00:12:03.254Z,99908.97
2022-11-25T00:14:45.730Z,99908.81
2022-11-25T00:17:29.462Z,99905.31
2022-11-25T00:20:10.797Z,99906.38
2022-11-25T00:22:39.779Z,99904.56
2022-11-25T00:25:09.972Z,99917.91
2022-11-25T00:27:38.604Z,99923.75
2022-11-25T00:30:08.030Z,99910.03
2022-11-25T00:32:36.670Z,99928.28
2022-11-25T00:35:04.698Z,99927.91
2022-11-25T00:37:33.212Z,99925.97
2022-11-25T00:40:01.634Z,99930.72
2022-11-25T00:42:48.326Z,99929.75
2022-11-25T00:45:16.674Z,99920.28
2022-11-25T00:47:46.017Z,99931.47
2022-11-25T00:50:13.701Z,99933.47
2022-11-25T00:52:43.985Z,99940.31
2022-11-25T00:55:13.038Z,99936.53
2022-11-25T00:57:42.890Z,99944.28
2022-11-25T01:00:14.445Z,99932.31
2022-11-25T01:02:46.564Z,99936.41
2022-11-25T01:05:14.628Z,99945.88
2022-11-25T01:07:43.386Z,99941.13
2022-11-25T01:10:11.511Z,99948.81
2022-11-25T01:12:40.703Z,99953.91
2022-11-25T01:15:09.440Z,99950.81
2022-11-25T01:17:37.406Z,99964.22
2022-11-25T01:20:06.654Z,99959.66
2022-11-25T01:22:34.091Z,99955.91
2022-11-25T01:25:05.237Z,99961.97
2022-11-25T01:27:34.453Z,99952.63
2022-11-25T01:30:02.416Z,99953.28
2022-11-25T01:32:29.934Z,99954.78
2022-11-25T01:34:58.662Z,99960.63
2022-11-25T01:37:27.093Z,99958.34
2022-11-25T01:39:54.654Z,99953.25
2022-11-25T01:42:22.527Z,99954.22
2022-11-25T01:45:26.588Z,99955.37
2022-11-25T01:47:58.860Z,99950.22
2022-11-25T01:50:27.870Z,99958.03
2022-11-25T01:52:56.745Z,99960.78
2022-11-25T01:55:27.527Z,99958.22
2022-11-25T01:58:03.818Z,99963.63
2022-11-25T02:00:51.362Z,99958.38
2022-11-25T02:03:25.934Z,99950.50
2022-11-25T02:06:19.800Z,99951.38
2022-11-25T02:08:51.507Z,99952.38
2022-11-25T02:11:20.366Z,99963.31
2022-11-25T02:13:50.113Z,99957.28
2022-11-25T02:16:17.755Z,99957.47
2022-11-25T02:18:45.822Z,99961.19
2022-11-25T02:21:16.634Z,99964.44
2022-11-25T02:23:55.779Z,99971.72
2022-11-25T02:26:43.089Z,99961.28
2022-11-25T02:29:10.805Z,99964.97
2022-11-25T02:31:38.721Z,99966.53
2022-11-25T02:34:06.590Z,99969.41
2022-11-25T02:36:34.766Z,99976.66
2022-11-25T02:39:04.677Z,99971.94
2022-11-25T02:41:35.478Z,99966.03
2022-11-25T02:44:04.753Z,99969.00
2022-11-25T02:46:32.943Z,99966.44
2022-11-25T02:49:08.794Z,99968.84
2022-11-25T02:51:38.401Z,99971.03
2022-11-25T02:54:06.777Z,99975.38
2022-11-25T02:56:35.499Z,99972.09
2022-11-25T02:59:04.595Z,99965.19
2022-11-25T03:01:32.942Z,99966.84
2022-11-25T03:04:02.384Z,99969.78
2022-11-25T03:06:31.660Z,99974.06
2022-11-25T03:09:00.193Z,99978.09
2022-11-25T03:11:47.307Z,99966.25
2022-11-25T03:14:16.895Z,99972.66
2022-11-25T03:16:48.102Z,99973.84
2022-11-25T03:19:16.199Z,99977.53
2022-11-25T03:21:44.090Z,99982.34
2022-11-25T03:24:11.861Z,99984.97
2022-11-25T03:26:40.660Z,99982.78
2022-11-25T03:29:08.808Z,99986.22
2022-11-25T03:31:36.528Z,99985.19
2022-11-25T03:34:04.607Z,99987.94
2022-11-25T03:36:32.495Z,100000.16
2022-11-25T03:39:00.061Z,100003.44
2022-11-25T03:41:28.564Z,100003.56
2022-11-25T03:43:56.136Z,100003.56
2022-11-25T03:46:23.900Z,100003.37
2022-11-25T03:48:53.541Z,100004.28
2022-11-25T03:51:22.337Z,100002.75
2022-11-25T03:53:50.699Z,100007.72
2022-11-25T03:56:27.477Z,100016.37
2022-11-25T03:58:57.413Z,100012.63
2022-11-25T04:01:26.089Z,100012.63
2022-11-25T04:03:54.353Z,100016.91
2022-11-25T04:06:24.084Z,100022.63
2022-11-25T04:08:53.625Z,100030.63
2022-11-25T04:11:48.035Z,100038.81
2022-11-25T04:14:20.813Z,100032.12
2022-11-25T04:16:53.165Z,100029.53
2022-11-25T04:19:21.091Z,100027.44
2022-11-25T04:21:52.362Z,100039.31
2022-11-25T04:24:21.218Z,100038.56
2022-11-25T04:26:50.306Z,100040.34
2022-11-25T04:29:18.335Z,100036.59
2022-11-25T04:31:46.133Z,100043.50
2022-11-25T04:34:14.681Z,100044.37
2022-11-25T04:36:44.715Z,100051.00
2022-11-25T04:39:13.895Z,100061.91
2022-11-25T04:41:43.207Z,100063.31
2022-11-25T04:48:20.630Z,100071.25
2022-11-25T04:50:49.671Z,100090.56
2022-11-25T04:53:18.465Z,100082.44
2022-11-25T04:55:47.514Z,100093.16
2022-11-25T04:58:37.395Z,100099.34
2022-11-25T05:01:05.548Z,100097.13
2022-11-25T05:03:33.579Z,100101.13
2022-11-25T05:06:07.686Z,100103.53
2022-11-25T05:08:36.729Z,100104.56
2022-11-25T05:11:05.795Z,100106.34
2022-11-25T05:13:33.763Z,100112.78
2022-11-25T05:16:07.826Z,100112.09
2022-11-25T05:18:36.198Z,100117.28
2022-11-25T05:21:25.048Z,100111.91
2022-11-25T05:24:13.980Z,100122.41
2022-11-25T05:26:52.927Z,100125.97
2022-11-25T05:29:21.120Z,100124.06
2022-11-25T05:31:50.395Z,100125.22
2022-11-25T05:34:19.106Z,100134.00
2022-11-25T05:36:48.767Z,100133.28
2022-11-25T05:39:35.434Z,100143.38
2022-11-25T05:42:06.804Z,100146.91
2022-11-25T05:44:40.780Z,100153.59
2022-11-25T05:47:26.019Z,100155.25
2022-11-25T05:50:13.505Z,100149.00
2022-11-25T05:52:42.692Z,100156.47
2022-11-25T05:55:10.320Z,100164.66
2022-11-25T05:57:38.201Z,100172.34
2022-11-25T06:00:26.427Z,100166.81
2022-11-25T06:03:03.154Z,100171.12
2022-11-25T06:05:41.900Z,100169.28
2022-11-25T06:08:19.371Z,100171.03
2022-11-25T06:10:48.931Z,100175.44
2022-11-25T06:13:18.399Z,100179.69
2022-11-25T06:15:48.985Z,100184.06
2022-11-25T06:18:20.191Z,100181.47
2022-11-25T06:20:57.779Z,100184.06
2022-11-25T06:23:28.730Z,100190.38
2022-11-25T06:26:10.900Z,100202.66
2022-11-25T06:29:03.358Z,100199.22
2022-11-25T06:31:30.949Z,100204.47
2022-11-25T06:34:06.615Z,100205.69
2022-11-25T06:36:36.255Z,100211.09
2022-11-25T06:41:42.405Z,100215.00
2022-11-25T06:44:16.261Z,100210.78
2022-11-25T06:46:48.790Z,100213.47
2022-11-25T06:49:18.081Z,100213.37
2022-11-25T06:51:45.993Z,100219.31
2022-11-25T06:54:15.020Z,100219.44
2022-11-25T06:56:51.895Z,100220.16
2022-11-25T06:59:22.361Z,100222.72
2022-11-25T07:02:15.060Z,100217.31
2022-11-25T07:05:01.394Z,100233.25
2022-11-25T07:07:51.481Z,100228.97
2022-11-25T07:10:44.143Z,100242.19
2022-11-25T07:13:26.817Z,100240.47
2022-11-25T07:16:06.257Z,100243.81
2022-11-25T07:18:41.421Z,100245.13
2022-11-25T07:21:16.487Z,100245.75
2022-11-25T07:23:47.913Z,100241.09
2022-11-25T07:26:20.347Z,100246.12
2022-11-25T07:28:54.408Z,100245.84
2022-11-25T07:31:36.393Z,100240.00
2022-11-25T07:34:18.322Z,100238.91
2022-11-25T07:36:47.596Z,100239.47
2022-11-25T07:39:19.872Z,100239.12
2022-11-25T07:41:54.584Z,100231.16
2022-11-25T07:47:03.648Z,100232.81
2022-11-25T07:49:33.141Z,100231.94
2022-11-25T07:52:03.200Z,100234.56
2022-11-25T07:54:36.789Z,100235.88
2022-11-25T07:57:07.047Z,100236.94
2022-11-25T07:59:41.641Z,100243.00
2022-11-25T08:04:54.062Z,100239.56
2022-11-25T08:07:22.614Z,100242.81
2022-11-25T08:09:51.792Z,100246.44
2022-11-25T08:12:21.065Z,100242.44
2022-11-25T08:14:48.968Z,100241.00
2022-11-25T08:17:25.758Z,100243.97
2022-11-25T08:19:55.504Z,100245.91
2022-11-25T08:22:26.384Z,100250.13
2022-11-25T08:24:58.667Z,100251.53
2022-11-25T08:27:26.935Z,100252.75
2022-11-25T08:30:01.945Z,100261.84
2022-11-25T08:32:31.418Z,100264.91
2022-11-25T08:35:00.889Z,100262.62
2022-11-25T08:40:06.269Z,100259.16
2022-11-25T08:42:34.376Z,100260.63
2022-11-25T08:45:04.035Z,100257.31
2022-11-25T08:47:33.929Z,100257.19
2022-11-25T08:52:43.702Z,100259.09
2022-11-25T08:55:23.112Z,100250.44
2022-11-25T08:57:52.346Z,100253.50
2022-11-25T09:00:22.366Z,100250.97
2022-11-25T09:02:50.870Z,100249.34
2022-11-25T09:05:21.396Z,100249.81
2022-11-25T09:07:52.684Z,100250.94
2022-11-25T09:10:23.875Z,100248.03
2022-11-25T09:12:53.402Z,100254.13
2022-11-25T09:15:21.806Z,100246.59
2022-11-25T09:18:01.542Z,100254.66
2022-11-25T09:20:32.541Z,100258.69
2022-11-25T09:23:02.651Z,100252.78
2022-11-25T09:25:31.438Z,100247.91
2022-11-25T09:27:59.860Z,100250.19
2022-11-25T09:30:27.821Z,100243.09
2022-11-25T09:33:03.817Z,100241.72
2022-11-25T09:35:32.285Z,100249.34
2022-11-25T09:38:02.351Z,100239.69
2022-11-25T09:40:36.666Z,100241.13
2022-11-25T09:43:38.387Z,100237.13
2022-11-25T09:46:41.934Z,100231.84
2022-11-25T09:49:54.630Z,100230.31
2022-11-25T09:52:53.733Z,100228.59
2022-11-25T09:55:24.766Z,100228.34
2022-11-25T09:58:19.519Z,100224.47
2022-11-25T10:00:50.812Z,100224.41
2022-11-25T10:03:43.459Z,100227.81
2022-11-25T10:07:09.004Z,100228.75
2022-11-25T10:09:37.541Z,100230.16
2022-11-25T10:12:24.571Z,100236.72
2022-11-25T10:15:01.781Z,100228.97
2022-11-25T10:17:44.405Z,100234.06
2022-11-25T10:20:29.497Z,100232.47
2022-11-25T10:23:05.199Z,100225.69
2022-11-25T10:25:46.141Z,100228.34
2022-11-25T10:28:26.084Z,100232.91
2022-11-25T10:31:08.511Z,100229.25
2022-11-25T10:33:46.691Z,100231.75
2022-11-25T10:36:29.539Z,100230.91
2022-11-25T10:39:04.637Z,100229.25
2022-11-25T10:41:56.987Z,100226.91
2022-11-25T10:44:32.523Z,100227.28
2022-11-25T10:47:25.175Z,100229.53
2022-11-25T10:50:08.409Z,100236.87
2022-11-25T10:52:48.094Z,100232.63
2022-11-25T10:55:29.295Z,100229.81
2022-11-25T11:05:46.819Z,100251.97
2022-11-25T11:08:39.384Z,100244.19
2022-11-25T11:11:26.373Z,100249.75
2022-11-25T11:14:21.490Z,100251.88
2022-11-25T11:17:23.579Z,100248.38
2022-11-25T11:20:25.677Z,100252.09
2022-11-25T11:23:08.900Z,100254.78
2022-11-25T11:25:47.415Z,100245.03
2022-11-25T11:28:40.384Z,100243.81
2022-11-25T11:31:26.413Z,100248.09
2022-11-25T11:34:32.425Z,100240.44
2022-11-25T11:37:44.409Z,100252.31
2022-11-25T11:40:43.906Z,100252.84
2022-11-25T11:43:49.058Z,100251.19
2022-11-25T11:46:59.483Z,100253.03
2022-11-25T11:49:51.964Z,100253.81
2022-11-25T11:53:03.044Z,100257.53
2022-11-25T11:59:17.048Z,100259.53
2022-11-25T12:02:13.224Z,100244.75
2022-11-25T12:05:19.548Z,100241.22
2022-11-25T12:08:14.734Z,100239.34
2022-11-25T12:11:32.354Z,100248.16
2022-11-25T12:14:45.757Z,100238.78
2022-11-25T12:17:52.341Z,100247.66
2022-11-25T12:20:55.378Z,100237.56
2022-11-25T12:24:05.643Z,100239.94
2022-11-25T12:31:27.853Z,100235.28
2022-11-25T12:34:17.918Z,100229.81
2022-11-25T12:37:15.616Z,100237.56
2022-11-25T12:40:29.577Z,100239.38
2022-11-25T12:43:28.799Z,100244.81
2022-11-25T12:46:36.675Z,100236.75
2022-11-25T12:49:26.408Z,100231.44
2022-11-25T12:52:27.350Z,100232.38
2022-11-25T13:00:39.131Z,100226.63
2022-11-25T13:03:47.583Z,100225.25
2022-11-25T13:06:55.389Z,100229.63
2022-11-25T13:10:05.389Z,100223.87
2022-11-25T13:13:18.708Z,100222.00
2022-11-25T13:16:01.193Z,100211.66
2022-11-25T13:18:47.300Z,100215.72
2022-11-25T13:25:26.128Z,100222.06
2022-11-25T13:28:34.664Z,100224.59
2022-11-25T13:31:14.868Z,100237.66
2022-11-25T13:34:23.643Z,100238.94
2022-11-25T13:37:36.810Z,100245.81
2022-11-25T13:40:33.419Z,100242.66
2022-11-25T13:43:52.414Z,100242.72
2022-11-25T13:46:43.140Z,100253.81
2022-11-25T13:49:35.880Z,100252.31
2022-11-25T13:55:19.456Z,100249.38
2022-11-25T13:58:22.397Z,100250.53
2022-11-25T14:01:28.016Z,100250.81
2022-11-25T14:04:08.539Z,100258.34
2022-11-25T14:07:34.589Z,100254.59
2022-11-25T14:10:45.944Z,100258.13
2022-11-25T14:13:44.052Z,100262.44
2022-11-25T14:17:02.806Z,100265.13
2022-11-25T14:23:22.675Z,100277.44
2022-11-25T14:26:47.781Z,100282.47
2022-11-25T14:29:27.345Z,100282.88
2022-11-25T14:32:14.416Z,100282.62
2022-11-25T14:34:52.427Z,100286.16
2022-11-25T14:37:29.373Z,100285.25
2022-11-25T14:40:36.716Z,100284.41
2022-11-25T14:43:29.385Z,100279.59
2022-11-25T14:46:21.034Z,100286.50
2022-11-25T14:48:55.167Z,100284.75
2022-11-25T14:51:40.408Z,100282.47
2022-11-25T14:54:18.478Z,100289.75
2022-11-25T14:56:51.664Z,100292.53
2022-11-25T14:59:34.823Z,100294.34
2022-11-25T15:02:40.541Z,100300.00
2022-11-25T15:05:27.140Z,100298.66
2022-11-25T15:08:21.294Z,100292.56
2022-11-25T15:11:15.460Z,100298.91
2022-11-25T15:14:06.365Z,100306.66
2022-11-25T15:17:05.457Z,100302.56
2022-11-25T15:19:54.830Z,100305.69
2022-11-25T15:22:49.497Z,100305.53
2022-11-25T15:25:37.079Z,100304.66
2022-11-25T15:28:37.519Z,100305.00
2022-11-25T15:31:21.895Z,100311.22
2022-11-25T15:33:58.297Z,100312.53
2022-11-25T15:36:28.424Z,100317.81
2022-11-25T15:39:16.385Z,100317.16
2022-11-25T15:41:52.619Z,100320.22
2022-11-25T15:47:27.117Z,100323.31
2022-11-25T15:50:05.768Z,100315.16
2022-11-25T15:52:42.876Z,100313.16
2022-11-25T15:55:40.368Z,100309.19
2022-11-25T15:58:28.320Z,100311.06
2022-11-25T16:01:17.378Z,100315.69
2022-11-25T16:03:52.491Z,100312.44
2022-11-25T16:07:21.362Z,100308.28
2022-11-25T16:10:02.605Z,100322.37
2022-11-25T16:12:37.660Z,100323.94
2022-11-25T16:15:18.625Z,100330.31
2022-11-25T16:18:24.927Z,100334.94
2022-11-25T16:21:10.787Z,100331.19
2022-11-25T16:23:44.327Z,100346.13
2022-11-25T16:26:43.583Z,100338.72
2022-11-25T16:29:41.083Z,100344.66
2022-11-25T16:32:18.677Z,100340.41
2022-11-25T16:35:15.362Z,100347.28
2022-11-25T16:38:08.628Z,100349.97
2022-11-25T16:44:04.772Z,100348.63
2022-11-25T16:46:47.296Z,100353.91
2022-11-25T16:49:50.352Z,100361.78
2022-11-25T16:52:32.626Z,100363.75
2022-11-25T16:55:32.796Z,100366.25
2022-11-25T16:58:28.406Z,100373.13
2022-11-25T17:01:26.892Z,100376.59
2022-11-25T17:04:18.385Z,100371.69
2022-11-25T17:07:34.885Z,100372.56
2022-11-25T17:10:08.324Z,100371.75
2022-11-25T17:12:54.510Z,100373.53
2022-11-25T17:15:41.585Z,100373.47
2022-11-25T17:18:26.480Z,100377.94
2022-11-25T17:21:32.261Z,100376.44
2022-11-25T17:24:24.698Z,100379.63
2022-11-25T17:27:27.363Z,100379.28
2022-11-25T17:30:25.434Z,100385.84
2022-11-25T17:33:19.827Z,100378.75
2022-11-25T17:36:15.590Z,100377.00
2022-11-25T17:39:12.894Z,100381.38
2022-11-25T17:41:58.766Z,100380.75
2022-11-25T17:47:32.096Z,100385.87
2022-11-25T17:50:22.592Z,100389.00
2022-11-25T17:53:06.041Z,100379.59
2022-11-25T17:56:02.754Z,100390.28
2022-11-25T17:58:46.864Z,100392.09
2022-11-25T18:01:31.807Z,100393.09
2022-11-25T18:04:31.494Z,100401.06
2022-11-25T18:07:22.486Z,100404.75
2022-11-25T18:10:14.477Z,100405.12
2022-11-25T18:15:53.335Z,100412.72
2022-11-25T18:18:36.552Z,100429.28
2022-11-25T18:21:20.496Z,100435.84
2022-11-25T18:24:19.375Z,100434.13
2022-11-25T18:27:02.261Z,100427.88
2022-11-25T18:29:44.874Z,100424.41
2022-11-25T18:32:50.406Z,100442.34
2022-11-25T18:38:26.273Z,100446.03
2022-11-25T18:41:13.439Z,100446.00
2022-11-25T18:44:25.531Z,100452.97
2022-11-25T18:47:11.063Z,100453.00
2022-11-25T18:50:20.264Z,100464.50
2022-11-25T18:53:03.517Z,100462.59
2022-11-25T18:55:55.665Z,100460.87
2022-11-25T19:01:36.812Z,100469.00
2022-11-25T19:04:17.340Z,100469.69
2022-11-25T19:07:00.871Z,100474.28
2022-11-25T19:09:45.903Z,100484.19
2022-11-25T19:12:32.288Z,100480.53
2022-11-25T19:15:17.892Z,100485.78
2022-11-25T19:18:03.474Z,100493.78
2022-11-25T19:21:00.300Z,100490.25
2022-11-25T19:23:42.632Z,100493.16
2022-11-25T19:26:48.202Z,100500.06
2022-11-25T19:29:42.302Z,100492.66
2022-11-25T19:32:20.060Z,100502.03
2022-11-25T19:34:52.367Z,100500.44
2022-11-25T19:39:59.014Z,100498.81
2022-11-25T19:42:31.874Z,100499.56
2022-11-25T19:45:20.600Z,100512.81
2022-11-25T19:48:13.963Z,100512.06
2022-11-25T19:51:02.295Z,100516.31
2022-11-25T19:53:47.321Z,100519.88
2022-11-25T19:56:42.869Z,100532.31
2022-11-25T19:59:35.308Z,100530.50
2022-11-25T20:02:22.473Z,100530.78
2022-11-25T20:05:05.986Z,100532.31
2022-11-25T20:07:50.330Z,100533.34
2022-11-25T20:10:46.477Z,100535.13
2022-11-25T20:13:35.235Z,100542.91
2022-11-25T20:16:17.782Z,100549.19
2022-11-25T20:19:13.356Z,100550.88
2022-11-25T20:22:09.841Z,100543.09
2022-11-25T20:24:58.616Z,100555.37
2022-11-25T20:27:54.219Z,100554.66
2022-11-25T20:30:35.543Z,100568.50
2022-11-25T20:33:25.708Z,100559.16
2022-11-25T20:36:38.521Z,100570.44
2022-11-25T20:39:26.275Z,100571.16
2022-11-25T20:42:20.141Z,100582.94
2022-11-25T20:45:00.000Z,100584.50
2022-11-25T20:47:45.525Z,100587.19
2022-11-25T20:50:38.779Z,100585.34
2022-11-25T20:53:22.308Z,100585.28
2022-11-25T20:56:25.300Z,100593.03
2022-11-25T20:59:18.999Z,100585.31
2022-11-25T21:02:01.809Z,100590.75
2022-11-25T21:04:45.871Z,100586.53
2022-11-25T21:07:39.802Z,100587.25
2022-11-25T21:10:28.371Z,100586.37
2022-11-25T21:13:28.856Z,100591.72
2022-11-25T21:16:14.748Z,100592.69
2022-11-25T21:19:08.363Z,100596.16
2022-11-25T21:21:50.657Z,100596.13
2022-11-25T21:24:39.396Z,100590.94
2022-11-25T21:27:31.317Z,100591.84
2022-11-25T21:30:19.977Z,100601.38
2022-11-25T21:33:03.222Z,100593.44
2022-11-25T21:35:56.150Z,100597.84
2022-11-25T21:38:38.529Z,100595.44
2022-11-25T21:41:45.033Z,100594.38
2022-11-25T21:44:29.062Z,100595.34
2022-11-25T21:47:29.152Z,100594.53
2022-11-25T21:50:16.566Z,100599.72
2022-11-25T21:53:09.804Z,100599.63
2022-11-25T21:55:55.025Z,100596.00
2022-11-25T21:58:50.515Z,100600.31
2022-11-25T22:01:37.229Z,100600.22
2022-11-25T22:04:21.033Z,100595.91
2022-11-25T22:07:04.496Z,100604.66
2022-11-25T22:10:00.173Z,100596.56
2022-11-25T22:12:43.270Z,100602.63
2022-11-25T22:15:37.365Z,100597.31
2022-11-25T22:18:28.665Z,100604.28
2022-11-25T22:21:24.239Z,100596.28
2022-11-25T22:24:14.261Z,100597.00
2022-11-25T22:27:03.567Z,100606.50
2022-11-25T22:29:59.881Z,100603.72
2022-11-25T22:32:44.975Z,100612.47
2022-11-25T22:35:30.820Z,100619.41
2022-11-25T22:38:16.719Z,100610.78
2022-11-25T22:41:06.882Z,100612.03
2022-11-25T22:43:58.443Z,100612.25
2022-11-25T22:46:40.210Z,100622.88
2022-11-25T22:49:58.279Z,100624.56
2022-11-25T22:52:37.741Z,100624.84
2022-11-25T22:55:22.860Z,100625.53
2022-11-25T22:58:05.000Z,100627.31
2022-11-25T23:00:57.043Z,100628.47
2022-11-25T23:03:39.770Z,100630.41
2022-11-25T23:06:23.191Z,100639.34
2022-11-25T23:09:04.375Z,100638.62
2022-11-25T23:11:39.701Z,100643.84
2022-11-25T23:14:13.234Z,100648.19
2022-11-25T23:16:43.362Z,100643.78
2022-11-25T23:19:18.512Z,100640.41
2022-11-25T23:21:47.628Z,100642.31
2022-11-25T23:24:16.972Z,100649.28
2022-11-25T23:26:45.334Z,100646.72
2022-11-25T23:29:13.477Z,100649.06
2022-11-25T23:31:52.465Z,100651.66
2022-11-25T23:34:43.628Z,100651.03
2022-11-25T23:41:33.838Z,100647.78
2022-11-25T23:44:24.940Z,100648.00
2022-11-25T23:47:20.972Z,100648.00
2022-11-25T23:50:32.413Z,100654.50
2022-11-25T23:53:24.692Z,100654.34
2022-11-25T23:56:07.729Z,100657.97
2022-11-25T23:59:03.279Z,100662.78
